KCCB/CCB METAR and TAF weather

Enter ICAO airport designator
Station Type Date Time Source
KCCB METAR 2018/12/13 20:15 UTC NOAA

KCCB 132015Z AUTO 00000KT 10SM CLR 21/M03 A3021 RMK AO2


Station Type Date Time Source
KCCB Decoded METAR 2018/12/13 20:15 UTC NOAA

Station name not available
Dec 13, 2018 - 03:15 PM EST / 2018.12.13 2015 UTC
Wind: Calm:0
Visibility: 10 mile(s):0
Sky conditions: clear
Temperature: 69 F (21 C)
Dew Point: 26 F (-3 C)
Relative Humidity: 19%
Pressure (altimeter): 30.21 in. Hg (1023 hPa)
ob: KCCB 132015Z AUTO 00000KT 10SM CLR 21/M03 A3021 RMK AO2
cycle: 20

Station Type Date Time Source
KCCB TAF UTC NOAA

Error!


Example: see airport list